Time;durP1;ratioP1;P1;durP2;ratioP2;P2;SDS_P1;SDS_P2;PMS_P1;PMS_P2;Temp;Humidity;BMP_temperature;BMP_pressure;BME280_temperature;BME280_humidity;BME280_pressure;Samples;Min_cycle;Max_cycle;Signal;HPM_P1;HPM_P2
2022/03/12 00:00:07;;;;;;;2.53;2.33;;;18.60;33.70;;;;;;5049808;28;20417;-79
2022/03/12 00:02:34;;;;;;;3.70;2.50;;;18.60;34.50;;;;;;5069678;28;20421;-79
2022/03/12 00:05:01;;;;;;;2.10;2.00;;;18.60;33.70;;;;;;5072818;28;20544;-78
2022/03/12 00:07:30;;;;;;;2.43;2.30;;;18.60;33.70;;;;;;5051520;28;20428;-79
2022/03/12 00:09:55;;;;;;;2.93;2.33;;;18.60;33.70;;;;;;5049269;28;20450;-79
2022/03/12 00:12:21;;;;;;;2.10;2.00;;;18.60;33.70;;;;;;5048828;28;20457;-78
2022/03/12 00:14:48;;;;;;;2.47;2.27;;;18.60;33.60;;;;;;5072995;28;20308;-78
2022/03/12 00:17:16;;;;;;;2.30;2.10;;;18.60;33.70;;;;;;5052300;28;20508;-78
2022/03/12 00:19:42;;;;;;;2.47;2.27;;;18.60;33.60;;;;;;5048320;28;20436;-78
2022/03/12 00:22:09;;;;;;;2.27;2.10;;;18.60;33.60;;;;;;5050184;28;20418;-78
2022/03/12 00:24:40;;;;;;;2.30;2.20;;;18.60;33.60;;;;;;5068948;28;20463;-78
2022/03/12 00:27:08;;;;;;;2.63;2.43;;;18.60;33.60;;;;;;5070069;28;20473;-78
2022/03/12 00:29:35;;;;;;;2.43;2.30;;;18.60;33.70;;;;;;5068438;28;20529;-78
2022/03/12 00:32:01;;;;;;;2.97;2.63;;;18.60;33.70;;;;;;5081792;28;20443;-78
2022/03/12 00:34:27;;;;;;;2.70;2.50;;;18.60;33.60;;;;;;5062387;28;20442;-79
2022/03/12 00:36:52;;;;;;;2.33;2.23;;;18.60;33.60;;;;;;5053360;28;20983;-78
2022/03/12 00:39:18;;;;;;;2.20;2.10;;;18.60;33.60;;;;;;5068550;28;20272;-78
2022/03/12 00:41:44;;;;;;;2.20;2.10;;;18.60;33.60;;;;;;5049999;28;20601;-79
2022/03/12 00:44:13;;;;;;;2.57;2.37;;;18.60;33.60;;;;;;5070566;28;20429;-79
2022/03/12 00:46:39;;;;;;;2.23;2.13;;;18.60;33.60;;;;;;5069786;28;20229;-78
2022/03/12 00:49:05;;;;;;;2.70;2.60;;;18.60;33.60;;;;;;5067544;28;20466;-78
2022/03/12 00:51:30;;;;;;;2.70;2.50;;;18.60;33.60;;;;;;5067642;28;20444;-79
2022/03/12 00:53:56;;;;;;;2.00;1.90;;;18.60;33.60;;;;;;5069802;28;20505;-78
2022/03/12 00:56:22;;;;;;;2.40;2.30;;;18.60;33.60;;;;;;5069626;28;20230;-79
2022/03/12 00:58:47;;;;;;;2.10;2.00;;;18.60;33.60;;;;;;5067448;28;20712;-78
2022/03/12 01:01:13;;;;;;;2.30;2.20;;;18.60;33.60;;;;;;5069779;28;20642;-79
2022/03/12 01:03:39;;;;;;;2.20;1.97;;;18.60;33.60;;;;;;5067865;28;20738;-79
2022/03/12 01:06:06;;;;;;;3.30;2.47;;;18.60;33.60;;;;;;5068533;28;20225;-79
2022/03/12 01:08:33;;;;;;;2.27;2.17;;;18.60;33.60;;;;;;5050057;28;20316;-78
2022/03/12 01:11:02;;;;;;;2.23;2.13;;;18.60;33.60;;;;;;5073952;28;20560;-78
2022/03/12 01:13:28;;;;;;;2.27;2.17;;;18.60;33.60;;;;;;5072827;28;20442;-79
2022/03/12 01:15:54;;;;;;;3.50;2.30;;;18.60;33.60;;;;;;5067187;28;20900;-78
2022/03/12 01:18:22;;;;;;;3.80;2.60;;;18.60;33.60;;;;;;5066168;28;20490;-78
2022/03/12 01:20:49;;;;;;;2.90;2.10;;;18.50;33.50;;;;;;5067483;28;20225;-79
2022/03/12 01:23:17;;;;;;;2.20;2.10;;;18.60;33.60;;;;;;5064474;28;21010;-79
2022/03/12 01:25:45;;;;;;;2.43;2.33;;;18.60;33.60;;;;;;5068802;28;20462;-79
2022/03/12 01:28:12;;;;;;;2.83;2.63;;;18.60;33.60;;;;;;5050343;28;20964;-78
2022/03/12 01:30:38;;;;;;;4.00;2.20;;;18.60;33.60;;;;;;5049583;28;20463;-78
2022/03/12 01:33:10;;;;;;;2.70;2.50;;;18.60;33.60;;;;;;5065173;28;20760;-78
2022/03/12 01:35:36;;;;;;;2.30;2.20;;;18.60;33.60;;;;;;5051326;28;20449;-78
2022/03/12 01:38:03;;;;;;;2.07;1.97;;;18.60;33.70;;;;;;5068217;28;20475;-79
2022/03/12 01:40:29;;;;;;;2.30;2.10;;;18.60;33.70;;;;;;5068611;28;20233;-78
2022/03/12 01:42:55;;;;;;;2.10;2.00;;;18.60;33.60;;;;;;5051533;28;20981;-78
2022/03/12 01:45:27;;;;;;;2.37;2.27;;;18.60;33.60;;;;;;5067976;28;20256;-78
2022/03/12 01:48:01;;;;;;;2.30;2.10;;;18.50;33.50;;;;;;5068800;28;20500;-79
2022/03/12 01:50:36;;;;;;;2.13;2.03;;;18.60;33.60;;;;;;5066780;28;20462;-78
2022/03/12 01:53:07;;;;;;;2.10;2.00;;;18.50;34.30;;;;;;5067839;28;20949;-78
2022/03/12 01:55:34;;;;;;;2.10;2.00;;;18.50;33.50;;;;;;5062091;28;20524;-78
2022/03/12 01:58:02;;;;;;;2.00;1.90;;;18.60;33.60;;;;;;5069023;28;20512;-79
2022/03/12 02:00:34;;;;;;;1.97;1.87;;;18.60;33.50;;;;;;5046286;28;20425;-79
2022/03/12 02:03:00;;;;;;;2.20;2.10;;;18.60;33.50;;;;;;5053390;28;20461;-79
2022/03/12 02:05:29;;;;;;;2.33;2.20;;;18.50;33.40;;;;;;5068184;28;20433;-78
2022/03/12 02:07:58;;;;;;;2.73;2.53;;;18.60;33.50;;;;;;5046258;28;20540;-79
2022/03/12 02:10:26;;;;;;;2.00;1.90;;;18.50;33.50;;;;;;5063732;28;20462;-78
2022/03/12 02:12:52;;;;;;;2.20;2.10;;;18.50;33.40;;;;;;5066314;28;20416;-79
2022/03/12 02:15:18;;;;;;;2.10;2.00;;;18.50;33.40;;;;;;5049985;28;20484;-79
2022/03/12 02:17:44;;;;;;;2.07;1.97;;;18.50;33.40;;;;;;5067893;28;20490;-79
2022/03/12 02:20:10;;;;;;;2.10;2.00;;;18.50;33.40;;;;;;5066182;28;21038;-79
2022/03/12 02:22:35;;;;;;;2.03;1.93;;;18.50;33.40;;;;;;5063288;28;20526;-78
2022/03/12 02:25:01;;;;;;;2.03;1.93;;;18.50;33.40;;;;;;5068878;28;20220;-79
2022/03/12 02:27:27;;;;;;;1.93;1.83;;;18.60;33.50;;;;;;5047755;28;20221;-79
2022/03/12 02:29:53;;;;;;;2.00;1.90;;;18.60;33.50;;;;;;5047160;28;20234;-79
2022/03/12 02:32:19;;;;;;;2.10;2.00;;;18.50;33.40;;;;;;5048007;28;20218;-79
2022/03/12 02:34:51;;;;;;;1.90;1.80;;;18.50;33.40;;;;;;5067086;28;20508;-79
2022/03/12 02:37:32;;;;;;;2.10;2.00;;;18.50;33.40;;;;;;5068457;28;20233;-79
2022/03/12 02:40:06;;;;;;;2.10;2.00;;;18.50;33.40;;;;;;5064365;28;20416;-79
2022/03/12 02:42:34;;;;;;;2.13;2.03;;;18.50;33.40;;;;;;5077839;28;20515;-78
2022/03/12 02:45:00;;;;;;;2.00;1.90;;;18.50;33.40;;;;;;5047672;28;20446;-79
2022/03/12 02:47:29;;;;;;;2.30;2.20;;;18.50;33.40;;;;;;5050209;28;21146;-79
2022/03/12 02:50:06;;;;;;;2.00;1.90;;;18.50;33.40;;;;;;5067430;28;20515;-79
2022/03/12 02:52:40;;;;;;;2.10;2.00;;;18.50;33.40;;;;;;5056874;28;20550;-79
2022/03/12 02:55:08;;;;;;;2.17;2.07;;;18.50;33.40;;;;;;5048567;28;22413;-79
2022/03/12 02:57:33;;;;;;;1.93;1.83;;;18.50;33.40;;;;;;5066502;28;20445;-78
2022/03/12 03:00:08;;;;;;;2.00;1.90;;;18.50;33.40;;;;;;5051750;28;20455;-79
2022/03/12 03:02:41;;;;;;;2.30;1.90;;;18.50;33.50;;;;;;5048943;28;20277;-79
2022/03/12 03:05:16;;;;;;;2.20;2.10;;;18.50;33.50;;;;;;5048849;28;20471;-79
2022/03/12 03:07:44;;;;;;;2.03;1.90;;;18.50;33.40;;;;;;5050772;28;20471;-79
2022/03/12 03:10:10;;;;;;;2.03;1.93;;;18.50;33.50;;;;;;5048696;28;20491;-79
2022/03/12 03:12:36;;;;;;;2.73;2.47;;;18.50;33.50;;;;;;5067781;28;20488;-79
2022/03/12 03:15:03;;;;;;;2.23;2.13;;;18.50;33.50;;;;;;5067518;28;20462;-79
2022/03/12 03:17:28;;;;;;;2.00;1.90;;;18.50;33.50;;;;;;5066288;28;20233;-79
2022/03/12 03:19:55;;;;;;;2.20;2.10;;;18.50;33.50;;;;;;5067918;28;20516;-79
2022/03/12 03:22:20;;;;;;;2.80;1.90;;;18.50;33.50;;;;;;5059271;28;20225;-79
2022/03/12 03:24:46;;;;;;;2.07;1.97;;;18.50;33.50;;;;;;5049246;28;20450;-79
2022/03/12 03:27:12;;;;;;;2.27;2.17;;;18.50;33.50;;;;;;5067769;28;20230;-79
2022/03/12 03:29:37;;;;;;;4.40;2.40;;;18.50;33.50;;;;;;5048764;28;20671;-78
2022/03/12 03:32:05;;;;;;;1.83;1.73;;;18.50;33.40;;;;;;5048999;28;20233;-79
2022/03/12 03:34:32;;;;;;;1.90;1.80;;;18.50;33.50;;;;;;5050159;28;20260;-78
2022/03/12 03:36:57;;;;;;;2.20;2.00;;;18.50;33.50;;;;;;5081222;28;20470;-79
2022/03/12 03:39:23;;;;;;;1.97;1.87;;;18.50;33.50;;;;;;5046698;28;20446;-79
2022/03/12 03:41:49;;;;;;;2.10;2.00;;;18.50;33.50;;;;;;5063593;28;20657;-79
2022/03/12 03:44:20;;;;;;;1.90;1.80;;;18.50;33.50;;;;;;5047958;28;20233;-79
2022/03/12 03:46:46;;;;;;;2.30;2.10;;;18.50;33.50;;;;;;5069410;28;20599;-78
2022/03/12 03:49:12;;;;;;;2.00;1.90;;;18.50;33.50;;;;;;5053160;28;20466;-78
2022/03/12 03:51:42;;;;;;;2.47;2.27;;;18.50;33.50;;;;;;5070599;28;20225;-78
2022/03/12 03:54:09;;;;;;;2.27;2.17;;;18.50;33.50;;;;;;5068209;28;20232;-78
2022/03/12 03:56:37;;;;;;;2.20;2.10;;;18.50;33.50;;;;;;5051478;28;21139;-78
2022/03/12 03:59:03;;;;;;;2.00;1.90;;;18.50;33.50;;;;;;5069324;28;20466;-78
2022/03/12 04:01:29;;;;;;;1.90;1.80;;;18.50;33.50;;;;;;5066988;28;20454;-78
2022/03/12 04:03:56;;;;;;;1.90;1.80;;;18.50;33.50;;;;;;5071209;28;20881;-78
2022/03/12 04:06:23;;;;;;;2.10;2.00;;;18.50;33.50;;;;;;5069717;28;20700;-78
2022/03/12 04:08:49;;;;;;;2.30;2.20;;;18.50;33.50;;;;;;5049407;28;20445;-78
2022/03/12 04:11:23;;;;;;;1.90;1.80;;;18.50;33.50;;;;;;5046750;28;20512;-78
2022/03/12 04:13:52;;;;;;;2.33;2.23;;;18.50;33.50;;;;;;5070555;28;20465;-78
2022/03/12 04:16:19;;;;;;;2.30;2.20;;;18.50;33.50;;;;;;5068445;28;21050;-78
2022/03/12 04:18:46;;;;;;;2.90;2.00;;;18.50;33.50;;;;;;5070732;28;20496;-78
2022/03/12 04:21:16;;;;;;;2.13;2.03;;;18.50;33.50;;;;;;5048515;28;21054;-78
2022/03/12 04:23:43;;;;;;;2.10;2.00;;;18.50;33.50;;;;;;5071986;28;20456;-79
2022/03/12 04:26:11;;;;;;;2.17;2.07;;;18.50;33.50;;;;;;5051868;28;20458;-78
2022/03/12 04:28:38;;;;;;;2.77;2.57;;;18.50;33.50;;;;;;5068693;28;20455;-78
2022/03/12 04:31:05;;;;;;;2.50;2.40;;;18.50;33.60;;;;;;5068495;28;20494;-79
2022/03/12 04:33:32;;;;;;;2.20;2.10;;;18.50;33.50;;;;;;5069438;28;20818;-79
2022/03/12 04:35:59;;;;;;;2.33;2.23;;;18.50;33.50;;;;;;5069938;28;20445;-78
2022/03/12 04:38:26;;;;;;;2.67;2.43;;;18.50;33.60;;;;;;5068482;28;20909;-79
2022/03/12 04:40:55;;;;;;;1.97;1.87;;;18.50;33.50;;;;;;5070477;28;20454;-78
2022/03/12 04:43:22;;;;;;;2.00;1.90;;;18.50;33.50;;;;;;5065439;28;20440;-78
2022/03/12 04:45:49;;;;;;;1.70;1.60;;;18.50;33.50;;;;;;5067154;28;20457;-79
2022/03/12 04:48:18;;;;;;;1.90;1.80;;;18.50;33.50;;;;;;5051181;28;20460;-78
2022/03/12 04:50:44;;;;;;;2.27;2.17;;;18.50;33.50;;;;;;5081301;28;20998;-78
2022/03/12 04:53:10;;;;;;;2.00;1.90;;;18.50;33.50;;;;;;5069726;28;20442;-78
2022/03/12 04:55:37;;;;;;;2.07;1.97;;;18.50;33.50;;;;;;5053619;28;21055;-78
2022/03/12 04:58:07;;;;;;;2.23;1.93;;;18.50;33.50;;;;;;5046385;28;21068;-78
2022/03/12 05:00:35;;;;;;;2.17;1.93;;;18.50;33.40;;;;;;5069250;28;21009;-78
2022/03/12 05:03:00;;;;;;;1.97;1.87;;;18.50;33.50;;;;;;5049513;28;20471;-78
2022/03/12 05:05:26;;;;;;;2.67;2.47;;;18.50;33.50;;;;;;5071694;28;20405;-76
2022/03/12 05:07:51;;;;;;;2.00;1.90;;;18.50;33.40;;;;;;5068001;28;20792;-78
2022/03/12 05:10:21;;;;;;;2.20;2.10;;;18.50;33.40;;;;;;5068258;28;20252;-78
2022/03/12 05:12:48;;;;;;;2.23;2.13;;;18.50;33.50;;;;;;5066102;28;20233;-78
2022/03/12 05:15:15;;;;;;;2.33;2.23;;;18.50;33.50;;;;;;5064359;28;20459;-78
2022/03/12 05:17:47;;;;;;;2.40;2.30;;;18.50;33.50;;;;;;5051351;28;20468;-78
2022/03/12 05:20:18;;;;;;;2.07;1.97;;;18.50;33.50;;;;;;5047199;28;20990;-78
2022/03/12 05:22:44;;;;;;;1.80;1.70;;;18.50;33.40;;;;;;5045454;28;20534;-78
2022/03/12 05:25:10;;;;;;;2.33;2.13;;;18.50;34.30;;;;;;5057422;28;20462;-78
2022/03/12 05:27:36;;;;;;;2.30;2.10;;;18.50;33.40;;;;;;5069248;28;20467;-78
2022/03/12 05:30:05;;;;;;;2.07;1.97;;;18.50;33.50;;;;;;5067163;28;20505;-83
2022/03/12 05:32:31;;;;;;;3.40;1.93;;;18.50;33.40;;;;;;5067855;28;20786;-82
2022/03/12 05:34:57;;;;;;;1.87;1.77;;;18.50;33.40;;;;;;5072320;28;20525;-87
2022/03/12 05:37:22;;;;;;;1.93;1.83;;;18.50;33.40;;;;;;5066673;28;20272;-80
2022/03/12 05:39:51;;;;;;;2.10;2.00;;;18.50;33.50;;;;;;5070843;28;20257;-84
2022/03/12 05:42:20;;;;;;;2.20;2.10;;;18.50;34.20;;;;;;5040209;28;20304;-82
2022/03/12 05:44:46;;;;;;;2.40;2.30;;;18.50;33.40;;;;;;5048550;28;20499;-86
2022/03/12 05:47:12;;;;;;;2.73;1.90;;;18.50;33.50;;;;;;5066222;28;20460;-80
2022/03/12 05:49:37;;;;;;;2.10;2.00;;;18.50;33.40;;;;;;5080782;28;20486;-80
2022/03/12 05:52:04;;;;;;;2.00;1.90;;;18.50;33.40;;;;;;5066824;28;20228;-78
2022/03/12 05:54:29;;;;;;;2.07;1.97;;;18.50;33.40;;;;;;5071205;28;20727;-81
2022/03/12 05:56:56;;;;;;;2.10;2.00;;;18.60;33.50;;;;;;5050910;28;20437;-83
2022/03/12 05:59:22;;;;;;;1.90;1.80;;;18.60;33.50;;;;;;5051193;28;20225;-83
2022/03/12 06:01:50;;;;;;;1.90;1.80;;;18.60;33.50;;;;;;5045264;28;20470;-82
2022/03/12 06:04:19;;;;;;;2.30;2.20;;;18.60;33.50;;;;;;5068124;28;20462;-83
2022/03/12 06:06:46;;;;;;;2.40;2.20;;;18.60;33.50;;;;;;5048625;28;20880;-83
2022/03/12 06:09:12;;;;;;;1.87;1.77;;;18.60;33.50;;;;;;5067070;28;21103;-83
2022/03/12 06:11:38;;;;;;;2.30;2.20;;;18.50;33.40;;;;;;5065820;28;20553;-82
2022/03/12 06:14:04;;;;;;;2.10;2.00;;;18.60;33.50;;;;;;5067443;28;20898;-82
2022/03/12 06:16:31;;;;;;;1.93;1.83;;;18.60;33.50;;;;;;5047503;28;20709;-82
2022/03/12 06:18:57;;;;;;;2.10;2.00;;;18.60;33.50;;;;;;5066396;28;20927;-82
2022/03/12 06:21:23;;;;;;;2.03;1.93;;;18.60;33.50;;;;;;5067543;28;20448;-82
2022/03/12 06:23:49;;;;;;;2.00;1.90;;;18.60;33.60;;;;;;5049460;28;20359;-78
2022/03/12 06:26:21;;;;;;;1.90;1.80;;;18.60;33.50;;;;;;5065488;28;20221;-78
2022/03/12 06:28:47;;;;;;;1.77;1.67;;;18.60;33.50;;;;;;5048260;28;20516;-79
2022/03/12 06:31:13;;;;;;;2.13;1.90;;;18.60;33.50;;;;;;5049801;28;20973;-79
2022/03/12 06:33:40;;;;;;;2.37;2.17;;;18.60;34.30;;;;;;5067834;28;20229;-80
2022/03/12 06:36:08;;;;;;;2.10;2.00;;;18.60;33.50;;;;;;5066127;28;20440;-79
2022/03/12 06:38:35;;;;;;;2.03;1.93;;;18.60;33.40;;;;;;5048186;28;20438;-80
2022/03/12 06:41:01;;;;;;;1.87;1.77;;;18.60;33.50;;;;;;5070997;28;20478;-79
2022/03/12 06:43:28;;;;;;;2.20;2.10;;;18.60;33.40;;;;;;5068782;28;20452;-79
2022/03/12 06:45:58;;;;;;;2.33;2.23;;;18.60;33.50;;;;;;5064728;28;20223;-79
2022/03/12 06:48:25;;;;;;;2.33;2.20;;;18.60;34.20;;;;;;5064730;28;20417;-78
2022/03/12 06:50:51;;;;;;;2.03;1.90;;;18.60;33.40;;;;;;5064400;28;20454;-79
2022/03/12 06:53:17;;;;;;;2.03;1.93;;;18.60;33.30;;;;;;5068262;28;20447;-81
2022/03/12 06:55:43;;;;;;;2.27;2.07;;;18.70;33.30;;;;;;5066990;28;20459;-80
2022/03/12 06:58:09;;;;;;;2.67;2.47;;;18.70;33.30;;;;;;5062971;28;20896;-80
2022/03/12 07:00:35;;;;;;;2.23;2.03;;;18.70;33.30;;;;;;5068340;28;22543;-80
2022/03/12 07:03:01;;;;;;;2.17;1.97;;;18.70;33.20;;;;;;5067656;28;20508;-78
2022/03/12 07:05:27;;;;;;;3.20;2.37;;;18.70;33.20;;;;;;5080181;28;20245;-79
2022/03/12 07:07:53;;;;;;;2.37;2.20;;;18.70;33.20;;;;;;5047612;28;20479;-79
2022/03/12 07:10:19;;;;;;;2.20;2.10;;;18.70;33.20;;;;;;5067467;28;20956;-78
2022/03/12 07:12:46;;;;;;;2.60;2.40;;;18.70;33.10;;;;;;5049805;28;20500;-79
2022/03/12 07:15:13;;;;;;;3.10;2.13;;;18.70;33.20;;;;;;5079010;28;20301;-78
2022/03/12 07:17:41;;;;;;;2.03;1.90;;;18.70;33.20;;;;;;5079110;28;20493;-78
2022/03/12 07:20:08;;;;;;;2.53;2.33;;;18.70;33.20;;;;;;5065329;28;21007;-79
2022/03/12 07:22:34;;;;;;;2.23;2.13;;;18.70;33.30;;;;;;5071898;28;20471;-78
2022/03/12 07:25:00;;;;;;;4.40;3.00;;;18.70;33.20;;;;;;5073964;28;20464;-78
2022/03/12 07:27:26;;;;;;;2.80;2.60;;;18.70;33.20;;;;;;5071044;28;20458;-79
2022/03/12 07:29:52;;;;;;;2.80;2.60;;;18.70;33.20;;;;;;5072796;28;20865;-78
2022/03/12 07:32:19;;;;;;;3.00;2.73;;;18.70;33.20;;;;;;5032660;28;20220;-79
2022/03/12 07:34:45;;;;;;;3.27;3.07;;;18.70;33.20;;;;;;5071027;28;20954;-79
2022/03/12 07:37:11;;;;;;;3.03;2.73;;;18.70;33.20;;;;;;5083647;28;21618;-79
2022/03/12 07:39:38;;;;;;;2.93;2.63;;;18.70;33.10;;;;;;5070966;28;20862;-79
2022/03/12 07:42:05;;;;;;;3.00;2.60;;;18.70;33.10;;;;;;5070872;28;20496;-78
2022/03/12 07:44:31;;;;;;;2.80;2.60;;;18.70;33.10;;;;;;5053826;28;20521;-79
2022/03/12 07:46:57;;;;;;;2.73;2.53;;;18.70;33.10;;;;;;5074712;28;20603;-79
2022/03/12 07:49:23;;;;;;;7.00;2.60;;;18.70;33.10;;;;;;5070144;28;20286;-79
2022/03/12 07:51:50;;;;;;;3.90;3.23;;;18.70;33.00;;;;;;5053330;28;20491;-79
2022/03/12 07:54:16;;;;;;;3.23;2.93;;;18.70;33.00;;;;;;5050942;28;20451;-79
2022/03/12 07:56:43;;;;;;;2.40;2.20;;;18.70;32.90;;;;;;5048848;28;20484;-79
2022/03/12 07:59:09;;;;;;;3.13;2.93;;;18.70;32.90;;;;;;5070288;28;20731;-79
2022/03/12 08:01:35;;;;;;;3.27;3.07;;;18.70;32.90;;;;;;5053399;28;20903;-79
2022/03/12 08:04:01;;;;;;;3.20;2.90;;;18.70;32.90;;;;;;5051826;28;20925;-79
2022/03/12 08:06:28;;;;;;;2.70;2.53;;;18.70;32.80;;;;;;5050192;28;20925;-79
2022/03/12 08:08:55;;;;;;;3.83;3.53;;;18.70;32.80;;;;;;5070290;28;20433;-79
2022/03/12 08:11:28;;;;;;;5.80;4.40;;;18.70;32.80;;;;;;5051810;28;20558;-73
2022/03/12 08:14:04;;;;;;;7.30;4.70;;;18.70;32.50;;;;;;5063677;28;20460;-80
2022/03/12 08:16:32;;;;;;;8.73;5.07;;;18.70;32.50;;;;;;5070717;28;20485;-78
2022/03/12 08:18:59;;;;;;;3.40;3.10;;;18.80;32.60;;;;;;5062631;28;20457;-76
2022/03/12 08:21:25;;;;;;;2.77;2.57;;;18.80;32.20;;;;;;5046714;28;20990;-81
2022/03/12 08:23:51;;;;;;;3.23;2.97;;;18.80;32.30;;;;;;5063980;28;20519;-74
2022/03/12 08:26:18;;;;;;;3.47;3.20;;;18.80;32.50;;;;;;5050857;28;20214;-83
2022/03/12 08:28:47;;;;;;;2.63;2.43;;;18.80;33.40;;;;;;5049797;28;20590;-77
2022/03/12 08:31:13;;;;;;;3.00;2.50;;;18.80;32.60;;;;;;5048748;28;20487;-80
2022/03/12 08:33:39;;;;;;;4.03;3.20;;;18.80;32.60;;;;;;5030578;28;20448;-79
2022/03/12 08:36:11;;;;;;;3.30;2.80;;;18.70;32.60;;;;;;5050746;28;20447;-82
2022/03/12 08:38:38;;;;;;;2.93;2.73;;;18.70;32.50;;;;;;5050787;28;20423;-80
2022/03/12 08:41:06;;;;;;;3.00;2.70;;;18.80;32.60;;;;;;5068863;28;20810;-79
2022/03/12 08:43:33;;;;;;;2.53;2.33;;;18.80;32.60;;;;;;5034908;28;20429;-75
2022/03/12 08:46:00;;;;;;;3.00;2.80;;;18.70;32.50;;;;;;5058050;28;20410;-78
2022/03/12 08:48:26;;;;;;;2.77;2.57;;;18.70;32.50;;;;;;5074154;28;20434;-77
2022/03/12 08:50:52;;;;;;;3.10;2.90;;;18.70;32.50;;;;;;5070269;28;20413;-77
2022/03/12 08:53:18;;;;;;;2.50;2.30;;;18.70;32.50;;;;;;5072561;28;20309;-76
2022/03/12 08:55:43;;;;;;;2.63;2.40;;;18.70;32.50;;;;;;5085104;28;20230;-76
2022/03/12 08:58:10;;;;;;;3.00;2.80;;;18.70;32.60;;;;;;5053774;28;20681;-82
2022/03/12 09:00:36;;;;;;;2.33;2.23;;;18.70;32.50;;;;;;5077756;28;20222;-78
2022/03/12 09:03:02;;;;;;;5.37;2.63;;;18.70;32.50;;;;;;5064734;28;20443;-78
2022/03/12 09:05:28;;;;;;;3.87;2.70;;;18.70;32.50;;;;;;5069327;28;20523;-78
2022/03/12 09:07:53;;;;;;;2.67;2.47;;;18.70;32.50;;;;;;5081322;28;20238;-77
2022/03/12 09:10:21;;;;;;;6.77;2.93;;;18.70;32.60;;;;;;5069163;28;20238;-76
2022/03/12 09:12:47;;;;;;;3.17;2.97;;;18.70;32.50;;;;;;5084665;28;20225;-79
2022/03/12 09:15:13;;;;;;;4.33;3.40;;;18.80;32.60;;;;;;5074120;28;20421;-79
2022/03/12 09:17:40;;;;;;;3.53;3.23;;;18.80;33.40;;;;;;5050945;28;20329;-80
2022/03/12 09:20:07;;;;;;;3.70;2.60;;;18.80;32.60;;;;;;5076558;28;20459;-79
2022/03/12 09:22:32;;;;;;;2.10;1.90;;;18.90;32.70;;;;;;5060611;28;20763;-80
2022/03/12 09:24:59;;;;;;;5.13;3.10;;;18.90;32.70;;;;;;5074583;28;20468;-78
2022/03/12 09:27:25;;;;;;;4.70;3.43;;;18.90;32.70;;;;;;5081058;28;20218;-80
2022/03/12 09:29:50;;;;;;;2.43;2.23;;;18.80;32.60;;;;;;5081940;28;21005;-80
2022/03/12 09:32:16;;;;;;;2.90;2.53;;;18.80;32.60;;;;;;5079855;28;20218;-80
2022/03/12 09:34:42;;;;;;;2.30;2.10;;;18.80;32.60;;;;;;5056315;28;20232;-80
2022/03/12 09:37:09;;;;;;;2.53;2.33;;;18.80;32.60;;;;;;5078471;28;20757;-80
2022/03/12 09:39:35;;;;;;;2.17;2.07;;;18.80;32.60;;;;;;5073638;28;20301;-80
2022/03/12 09:42:02;;;;;;;2.80;2.40;;;18.80;32.60;;;;;;5084863;28;20459;-80
2022/03/12 09:44:28;;;;;;;3.43;2.83;;;18.80;32.60;;;;;;5079598;28;20458;-80
2022/03/12 09:46:55;;;;;;;5.50;2.40;;;18.80;32.60;;;;;;5060319;28;20844;-79
2022/03/12 09:49:21;;;;;;;5.43;2.33;;;18.80;32.60;;;;;;5058875;28;20222;-78
2022/03/12 09:51:47;;;;;;;2.87;2.67;;;18.80;32.60;;;;;;5077563;28;20482;-80
2022/03/12 09:54:13;;;;;;;2.70;2.50;;;18.80;32.60;;;;;;5092857;28;20305;-80
2022/03/12 09:56:39;;;;;;;2.70;2.50;;;18.80;33.40;;;;;;5076606;28;20256;-80
2022/03/12 09:59:08;;;;;;;2.73;2.53;;;18.80;32.60;;;;;;5091890;28;20488;-80
2022/03/12 10:01:34;;;;;;;3.70;2.37;;;18.80;32.70;;;;;;5054796;28;20462;-80
2022/03/12 10:03:59;;;;;;;2.30;2.10;;;18.90;32.80;;;;;;5091133;28;20441;-80
2022/03/12 10:06:25;;;;;;;2.87;2.00;;;18.80;32.80;;;;;;5077807;28;20232;-80
2022/03/12 10:08:55;;;;;;;2.60;2.40;;;18.80;32.90;;;;;;5078283;28;21039;-80
2022/03/12 10:11:20;;;;;;;3.13;2.20;;;18.80;32.80;;;;;;5078066;28;20206;-79
2022/03/12 10:13:46;;;;;;;2.40;2.20;;;18.90;32.90;;;;;;5060601;28;20439;-81
2022/03/12 10:16:12;;;;;;;2.27;2.10;;;18.90;32.80;;;;;;5078081;28;20221;-80
2022/03/12 10:18:37;;;;;;;2.20;2.10;;;18.90;32.80;;;;;;5079122;28;20222;-80
2022/03/12 10:21:03;;;;;;;3.00;1.97;;;18.90;32.80;;;;;;5077741;28;20220;-80
2022/03/12 10:23:29;;;;;;;1.87;1.77;;;18.90;32.90;;;;;;5063835;28;20235;-81
2022/03/12 10:25:55;;;;;;;2.47;2.27;;;18.90;32.70;;;;;;5059172;28;20518;-77
2022/03/12 10:28:21;;;;;;;5.90;1.87;;;18.90;32.70;;;;;;5051803;28;20521;-78
2022/03/12 10:30:46;;;;;;;2.27;2.17;;;18.90;32.70;;;;;;5050132;28;20222;-75
2022/03/12 10:33:24;;;;;;;3.60;2.23;;;18.90;32.70;;;;;;5072873;28;20213;-78
2022/03/12 10:35:50;;;;;;;2.33;1.80;;;18.90;32.70;;;;;;5071849;28;20221;-78
2022/03/12 10:38:17;;;;;;;1.90;1.80;;;18.90;32.70;;;;;;5072380;28;20437;-79
2022/03/12 10:40:44;;;;;;;2.10;2.00;;;18.90;33.50;;;;;;5076277;28;20467;-75
2022/03/12 10:43:14;;;;;;;2.73;2.53;;;18.90;32.70;;;;;;5078779;28;20450;-82
2022/03/12 10:45:47;;;;;;;2.30;2.10;;;18.90;32.80;;;;;;5078291;28;20443;-80
2022/03/12 10:48:19;;;;;;;1.90;1.80;;;18.90;33.00;;;;;;5073584;28;20427;-77
2022/03/12 10:50:47;;;;;;;2.60;2.20;;;18.90;32.80;;;;;;5070800;28;20425;-82
2022/03/12 10:53:14;;;;;;;1.97;1.87;;;18.90;32.90;;;;;;5077357;28;20443;-79
2022/03/12 10:55:46;;;;;;;1.90;1.80;;;18.90;33.10;;;;;;5030376;28;20439;-78
2022/03/12 10:58:19;;;;;;;2.23;2.13;;;18.90;33.10;;;;;;5047518;28;20462;-79
2022/03/12 11:00:46;;;;;;;2.80;2.60;;;18.90;33.10;;;;;;5052375;28;20450;-79
2022/03/12 11:03:16;;;;;;;1.90;1.80;;;18.90;33.20;;;;;;5075935;28;20442;-79
2022/03/12 11:05:43;;;;;;;1.90;1.80;;;18.90;33.30;;;;;;5078720;28;20458;-80
2022/03/12 11:08:18;;;;;;;2.00;1.90;;;18.90;33.30;;;;;;5075953;28;20474;-79
2022/03/12 11:10:46;;;;;;;1.80;1.70;;;18.90;33.30;;;;;;5088992;28;20450;-78
2022/03/12 11:13:25;;;;;;;2.63;2.53;;;18.90;33.30;;;;;;5074977;28;20438;-79
2022/03/12 11:16:17;;;;;;;3.23;1.73;;;18.90;33.40;;;;;;5057244;28;20461;-79
2022/03/12 11:18:51;;;;;;;2.17;2.07;;;18.90;33.40;;;;;;5072835;28;20451;-79
2022/03/12 11:21:50;;;;;;;2.00;1.90;;;18.90;33.80;;;;;;5074564;28;20464;-79
2022/03/12 11:24:24;;;;;;;1.93;1.83;;;18.90;33.50;;;;;;5073250;28;20520;-79
2022/03/12 11:26:54;;;;;;;1.83;1.73;;;18.90;33.50;;;;;;5076627;28;20496;-78
2022/03/12 11:29:22;;;;;;;2.00;1.80;;;18.90;33.60;;;;;;5050327;28;20444;-79
2022/03/12 11:31:49;;;;;;;2.10;2.00;;;18.90;33.60;;;;;;5076958;28;20447;-79
2022/03/12 11:34:19;;;;;;;2.90;1.93;;;18.90;33.70;;;;;;5076756;28;20537;-79
2022/03/12 11:36:55;;;;;;;1.80;1.70;;;18.90;33.60;;;;;;5061721;28;20587;-80
2022/03/12 11:39:28;;;;;;;2.10;2.00;;;18.90;33.70;;;;;;5060798;28;20446;-80
2022/03/12 11:42:11;;;;;;;1.80;1.70;;;18.90;33.80;;;;;;5074463;28;20988;-79
2022/03/12 11:44:38;;;;;;;2.27;2.10;;;18.90;33.70;;;;;;5077992;28;20459;-79
2022/03/12 11:47:05;;;;;;;2.00;1.90;;;18.90;33.80;;;;;;5076862;28;20859;-79
2022/03/12 11:49:32;;;;;;;1.80;1.70;;;18.90;33.80;;;;;;5078223;28;20801;-79
2022/03/12 11:51:59;;;;;;;1.60;1.50;;;18.90;33.80;;;;;;5076841;28;20500;-79
2022/03/12 11:54:25;;;;;;;2.00;1.90;;;18.90;33.80;;;;;;5076934;28;20525;-79
2022/03/12 11:56:51;;;;;;;1.80;1.70;;;18.90;33.80;;;;;;5076780;28;20492;-79
2022/03/12 11:59:18;;;;;;;2.57;2.40;;;18.90;33.80;;;;;;5059541;28;20443;-79
2022/03/12 12:01:55;;;;;;;2.10;1.93;;;18.90;33.90;;;;;;5077923;28;20457;-79
2022/03/12 12:04:22;;;;;;;2.00;1.90;;;18.90;34.70;;;;;;5060117;28;20450;-79
2022/03/12 12:06:48;;;;;;;1.90;1.80;;;18.90;33.90;;;;;;5059281;28;21089;-79
2022/03/12 12:09:14;;;;;;;2.00;1.90;;;18.90;33.90;;;;;;5077780;28;20993;-79
2022/03/12 12:11:41;;;;;;;2.13;1.70;;;18.90;33.90;;;;;;5078347;28;20450;-79
2022/03/12 12:14:06;;;;;;;1.90;1.80;;;18.90;33.90;;;;;;5076529;28;20447;-79
2022/03/12 12:16:32;;;;;;;1.90;1.80;;;18.90;33.90;;;;;;5077329;28;20473;-79
2022/03/12 12:18:58;;;;;;;1.87;1.77;;;18.90;34.00;;;;;;5060829;28;20214;-79
2022/03/12 12:21:23;;;;;;;2.27;2.17;;;18.90;34.00;;;;;;5082644;28;20239;-80
2022/03/12 12:23:49;;;;;;;1.60;1.50;;;18.90;34.00;;;;;;5078399;28;20581;-80
2022/03/12 12:26:15;;;;;;;1.80;1.70;;;18.90;34.00;;;;;;5060814;28;20213;-80
2022/03/12 12:28:52;;;;;;;1.53;1.43;;;18.90;34.00;;;;;;5078681;28;20229;-80
2022/03/12 12:31:35;;;;;;;1.70;1.60;;;18.90;34.00;;;;;;5077193;28;20220;-80
2022/03/12 12:34:05;;;;;;;1.77;1.63;;;18.90;34.00;;;;;;5059070;28;20431;-80
2022/03/12 12:36:31;;;;;;;2.17;1.70;;;18.90;34.00;;;;;;5077052;28;20421;-80
2022/03/12 12:39:12;;;;;;;2.03;1.93;;;18.90;34.00;;;;;;5078232;28;20432;-80
2022/03/12 12:41:52;;;;;;;1.60;1.50;;;18.90;34.00;;;;;;5074958;28;20210;-79
2022/03/12 12:44:42;;;;;;;1.80;1.70;;;18.90;34.10;;;;;;5074384;28;20439;-80
2022/03/12 12:47:15;;;;;;;3.87;1.80;;;18.90;34.10;;;;;;5080319;28;20839;-80
2022/03/12 12:49:43;;;;;;;1.70;1.60;;;18.90;34.00;;;;;;5060710;28;20477;-80